Portada
METAR-TAF:

METAR-TAF

Aeroports :

Algesires, Espanya

latitud: 36-07-44N, longitud: 05-26-28W, altitud: 30 m

Observació

L'informe es va fer fa 20 minuts, a les 22:00 UTC
Vent 9 kt del Oest, variant entre Sud i Oest/Nord-Oest
Temperatura 16°C
Humitat 82%
Pressió 1023 hPa
Visibilitat 10 km o més
Núvols disperses a una alçada de 4500 ft

METAR: LEAG 132200Z AUTO 26009KT 190V300 9999 SCT045 16/13 Q1023

Hora: 23:20 (22:20 UTC)


TAF: manca

Observacions i pronòstics meteorològics de més de 4000 aeroports (METAR i TAF).

Les estacions disponibles són els punts grocs i vermells al mapa.

Posi el ratolí al punt desitjat per veure el nom de l'estació.

Feu clic per veure les observacions i els pronòstics meteorològics.

Per canviar el mapa: feu clic els botons verds amb una creu de color negre per apropar; al botó verd amb un guió per allunyar la imatge; o en les fletxes verdes per a mapes adjacents.


METAR-TAF: